Home > Products > Valid Products > TAF

000
FTUS42 KMHX 020500 RRA
TAFEWN
TAF
KEWN 020549Z 0206/0306 15003KT P6SM SCT010 BKN110
     FM020730 12004KT 4SM -TSRA BR BKN030CB
     FM021300 15008KT P6SM VCSH SCT007 BKN025
     FM021800 13005KT P6SM VCTS BKN030CB=



000
FTUS42 KMHX 020000 AAA
TAFEWN
TAF AMD
KEWN 020008Z 0200/0224 12005KT P6SM SCT005 OVC070
     FM020800 12004KT 3SM BR VCSH BKN007 OVC025
     FM021300 15008KT 5SM -SHRA SCT007 OVC025
     FM021800 13005KT 6SM -SHRA OVC030=



000
FTUS42 KMHX 012300
TAFEWN
TAF
KEWN 012321Z 0200/0224 11007KT P6SM VCSH OVC015
     FM020800 12004KT 3SM BR VCSH BKN007 OVC025
     FM021300 15008KT 5SM -SHRA SCT007 OVC025
     FM021800 13005KT 6SM -SHRA OVC030=



000
FTUS42 KMHX 012000 AAA
TAFEWN
TAF AMD
KEWN 012013Z 0120/0218 11005KT P6SM BKN006 OVC025
     FM012100 13007KT P6SM VCSH SCT025 BKN035
     FM020800 12004KT 3SM BR VCSH BKN007 OVC025
     FM021300 15008KT 5SM -SHRA SCT007 OVC025=



000
FTUS42 KMHX 011700 RRA
TAFEWN
TAF
KEWN 011741Z 0118/0218 10005KT 2SM SHRA BKN006 OVC015
     FM011900 15008KT P6SM VCSH SCT015 BKN035
     FM020800 12004KT 3SM BR VCSH BKN007 OVC015
     FM021300 15008KT 5SM -SHRA SCT007 OVC025=



000
FTUS42 KMHX 011500 AAB
TAFEWN
TAF AMD
KEWN 011555Z 0116/0212 06007KT 3SM +TSRA BR SCT005 BKN015CB
     FM011800 11010KT P6SM VCTS SCT015 BKN035CB
     FM020000 12006KT 6SM BR VCSH BKN035=



000
FTUS42 KMHX 011300 AAA
TAFEWN
TAF AMD
KEWN 011321Z 0113/0212 06008KT 1SM +TSRA BR SCT005 BKN015CB
     FM011500 11010KT P6SM VCTS SCT025 BKN035CB
     FM020000 12006KT 6SM BR VCSH BKN035=



000
FTUS42 KMHX 011100
TAFEWN
TAF
KEWN 011126Z 0112/0212 06008KT P6SM VCSH SCT025 BKN040
      TEMPO 0113/0115 07010KT 3SM -TSRA SCT025 BKN040CB
     FM011700 11010KT P6SM VCTS SCT025 BKN035CB
     FM020000 12006KT 6SM BR VCSH BKN035=



000
FTUS42 KMHX 010500 RRA
TAFEWN
TAF
KEWN 010553Z 0106/0206 08004KT P6SM SCT040 BKN100
     FM011200 06008KT P6SM VCSH SCT025 BKN040
     FM011700 11010KT P6SM VCTS SCT025 BKN035CB=



000
FTUS42 KMHX 312300 RRA
TAFEWN
TAF
KEWN 312345Z 0100/0124 10005KT P6SM SCT040 BKN100
     FM011200 06008KT P6SM VCSH SCT025 BKN040
     FM011700 10008KT P6SM VCTS SCT025 BKN035CB=



000
FTUS42 KMHX 311700
TAFEWN
TAF
KEWN 311737Z 3118/0118 11006KT P6SM SCT040 BKN100
     FM011200 06008KT P6SM VCSH SCT025 BKN040=



000
FTUS42 KMHX 311100
TAFEWN
TAF
KEWN 311136Z 3112/0112 08005KT P6SM BKN100
     FM311700 10008KT P6SM SCT040 BKN200
     FM011100 06005KT P6SM VCSH SCT025 BKN040=



000
FTUS42 KMHX 310500
TAFEWN
TAF
KEWN 310520Z 3106/0106 00000KT P6SM BKN250
     FM311700 06005KT P6SM SCT040 BKN250
     FM010100 15004KT P6SM SCT250=



000
FTUS42 KMHX 302300
TAFEWN
TAF
KEWN 302320Z 3100/3124 09003KT P6SM SCT060 BKN100
     FM310900 00000KT 5SM BR SCT040 SCT250
     FM311200 09005KT P6SM SCT040 SCT250=



000
FTUS42 KMHX 301700
TAFEWN
TAF
KEWN 301732Z 3018/3118 07006KT P6SM SCT040
     FM310200 10002KT P6SM FEW040
     FM310900 00000KT P6SM SKC
      TEMPO 3109/3112 5SM BR=



000
FTUS42 KMHX 301100
TAFEWN
TAF
KEWN 301137Z 3012/3112 05006KT P6SM SCT040
     FM302300 12003KT P6SM SCT040=



    US Dept of Commerce
    National Oceanic and Atmospheric Administration
    National Weather Service
    1325 East West Highway
    Silver Spring, MD 20910
    Page Author: NWS Internet Services Team
Disclaimer
Information Quality
Credits
Glossary
Privacy Policy
Freedom of Information Act (FOIA)
About Us
Career Opportunities